Murrysville, Pennsylvania
Current Conditions -  °F | °C
As of 9:58 AM on Thursday 18 Dec 2014 (Local Time) from KAGC Reporting Station
Haze Haze  
Wind Chill: -8°   Ceiling: 800
Heat Index: -3°   Visibility: 2mi
Dew Point: -7°   Wind: 9mph
Humidity: 75%   Direction: 270°W
Pressure: 30.18"   Gusts: NA
Location:  40.43°N, 79.7°W
Report Text: KAGC 181458Z 27008KT 2SM HZ OVC008 M03/M07 A3018 RMK AO2 T10281067
Loading
Personal Weather Stations






























Interactive Weather Map New forecast layout! Learn more

10-Day Weather Forecast

Advertisements
Track Severe Weather on mobile